Time;durP1;ratioP1;P1;durP2;ratioP2;P2;SDS_P1;SDS_P2;PMS_P1;PMS_P2;Temp;Humidity;BMP_temperature;BMP_pressure;BME280_temperature;BME280_humidity;BME280_pressure;Samples;Min_cycle;Max_cycle;Signal;HPM_P1;HPM_P2
2023/02/16 00:01:33;;;;;;;71.78;40.80;;;;;;;6.80;100.00;102412.97;5067857;28;20025;-64
2023/02/16 00:03:58;;;;;;;67.00;38.70;;;;;;;6.81;100.00;102412.09;5068224;28;20036;-64
2023/02/16 00:06:24;;;;;;;70.43;39.92;;;;;;;6.79;100.00;102413.84;5068196;28;20028;-64
2023/02/16 00:08:52;;;;;;;71.90;40.38;;;;;;;6.76;100.00;102403.34;5070447;28;20024;-65
2023/02/16 00:14:12;;;;;;;67.93;38.60;;;;;;;6.64;100.00;102403.25;5068641;28;20598;-65
2023/02/16 00:16:37;;;;;;;78.18;42.30;;;;;;;6.69;100.00;102405.03;5083955;28;20021;-65
2023/02/16 00:19:23;;;;;;;74.63;41.42;;;;;;;6.68;100.00;102405.00;5069668;28;20035;-65
2023/02/16 00:21:50;;;;;;;73.97;40.97;;;;;;;6.67;100.00;102401.53;5067439;28;20028;-63
2023/02/16 00:24:16;;;;;;;69.95;40.70;;;;;;;6.66;100.00;102402.41;5069424;28;20439;-65
2023/02/16 00:26:42;;;;;;;82.47;42.00;;;;;;;6.68;100.00;102405.00;5067807;28;20032;-65
2023/02/16 00:29:13;;;;;;;78.13;42.58;;;;;;;6.65;100.00;102405.03;5067585;28;20051;-64
2023/02/16 00:31:38;;;;;;;74.95;41.35;;;;;;;6.67;100.00;102409.41;5068251;28;20032;-64
2023/02/16 00:34:35;;;;;;;75.78;40.28;;;;;;;6.68;100.00;102399.78;5069076;28;20032;-65
2023/02/16 00:37:03;;;;;;;69.28;39.25;;;;;;;6.65;100.00;102399.78;5067205;28;20171;-65
2023/02/16 00:39:29;;;;;;;81.18;41.65;;;;;;;6.63;100.00;102401.50;5068783;28;20364;-64
2023/02/16 00:41:57;;;;;;;78.95;42.75;;;;;;;6.61;100.00;102397.97;5067803;28;20035;-64
2023/02/16 00:44:43;;;;;;;75.25;41.88;;;;;;;6.62;100.00;102397.13;5067736;28;20044;-64
2023/02/16 00:47:19;;;;;;;76.70;41.25;;;;;;;6.60;100.00;102393.63;5059962;28;20443;-65
2023/02/16 00:49:47;;;;;;;80.88;42.08;;;;;;;6.57;100.00;102391.84;5047864;28;20472;-65
2023/02/16 00:52:33;;;;;;;75.40;42.05;;;;;;;6.55;100.00;102394.47;5042040;28;20019;-64
2023/02/16 00:55:00;;;;;;;71.35;39.85;;;;;;;6.59;100.00;102389.25;5063848;28;20035;-64
2023/02/16 00:57:28;;;;;;;77.45;43.00;;;;;;;6.57;100.00;102392.72;5053395;28;20032;-66
2023/02/16 01:00:05;;;;;;;80.78;41.88;;;;;;;6.56;100.00;102395.31;5068811;28;20036;-64
2023/02/16 01:02:30;;;;;;;78.85;41.30;;;;;;;6.64;100.00;102387.53;5065288;28;20036;-64
2023/02/16 01:04:56;;;;;;;78.57;42.00;;;;;;;6.63;100.00;102384.06;5048669;28;20025;-65
2023/02/16 01:12:50;;;;;;;81.97;41.13;;;;;;;6.78;100.00;102390.25;5050960;28;22054;-64
2023/02/16 01:15:18;;;;;;;72.00;40.70;;;;;;;6.79;100.00;102382.41;5068687;28;20029;-65
2023/02/16 01:17:43;;;;;;;73.65;40.90;;;;;;;6.77;100.00;102384.13;5049067;28;20028;-65
2023/02/16 01:20:16;;;;;;;70.65;39.67;;;;;;;6.80;100.00;102384.16;5067081;28;20363;-66
2023/02/16 01:22:42;;;;;;;75.95;41.15;;;;;;;6.82;100.00;102371.06;5065121;28;20032;-65
2023/02/16 01:25:07;;;;;;;73.18;41.00;;;;;;;6.84;100.00;102379.84;5067573;28;20031;-65
2023/02/16 01:27:36;;;;;;;69.38;38.97;;;;;;;6.85;100.00;102378.06;5065736;28;20021;-64
2023/02/16 01:30:01;;;;;;;70.43;40.00;;;;;;;6.87;100.00;102381.59;5066388;28;20123;-65
2023/02/16 01:32:26;;;;;;;72.05;39.70;;;;;;;6.87;100.00;102376.34;5067328;28;20101;-65
2023/02/16 01:34:52;;;;;;;74.00;40.17;;;;;;;6.91;100.00;102376.38;5051510;28;20037;-65
2023/02/16 01:37:18;;;;;;;77.78;39.10;;;;;;;6.93;100.00;102373.78;5047194;28;20028;-64
2023/02/16 01:39:44;;;;;;;71.78;39.63;;;;;;;6.87;100.00;102377.22;5047622;28;20719;-65
2023/02/16 01:42:14;;;;;;;69.15;38.03;;;;;;;6.91;100.00;102381.63;5047746;28;20025;-64
2023/02/16 01:44:56;;;;;;;73.90;41.70;;;;;;;6.91;100.00;102373.75;5057702;28;20110;-65
2023/02/16 01:47:29;;;;;;;68.90;38.50;;;;;;;6.92;100.00;102370.25;5068036;28;20078;-65
2023/02/16 01:49:55;;;;;;;67.53;38.03;;;;;;;6.95;100.00;102369.41;5065421;28;20099;-65
2023/02/16 01:52:31;;;;;;;71.55;40.53;;;;;;;6.99;100.00;102371.19;5067865;28;20190;-65
2023/02/16 01:55:06;;;;;;;72.88;39.20;;;;;;;7.03;100.00;102372.94;5067305;28;20043;-65
2023/02/16 01:57:49;;;;;;;68.28;37.88;;;;;;;7.00;100.00;102365.06;5068343;28;20033;-64
2023/02/16 02:00:29;;;;;;;63.60;37.75;;;;;;;7.03;100.00;102366.81;5062373;28;20024;-64
2023/02/16 02:05:44;;;;;;;70.07;37.58;;;;;;;7.13;100.00;102366.00;5066211;28;20048;-63
2023/02/16 02:08:13;;;;;;;66.45;37.13;;;;;;;7.12;100.00;102371.22;5066231;28;20028;-64
2023/02/16 02:10:48;;;;;;;63.97;37.50;;;;;;;7.08;100.00;102360.72;5066103;28;20090;-65
2023/02/16 02:13:20;;;;;;;71.30;38.25;;;;;;;7.15;100.00;102358.16;5067699;28;20020;-64
2023/02/16 02:15:46;;;;;;;67.85;38.20;;;;;;;7.10;100.00;102359.88;5056745;28;20139;-64
2023/02/16 02:18:11;;;;;;;68.50;37.30;;;;;;;7.15;100.00;102352.91;5047827;28;20531;-65
2023/02/16 02:23:45;;;;;;;64.47;36.53;;;;;;;7.15;100.00;102353.78;5066417;28;20387;-66
2023/02/16 02:26:39;;;;;;;66.18;36.53;;;;;;;7.15;100.00;102355.53;5060678;28;20029;-64
2023/02/16 02:29:17;;;;;;;66.55;36.75;;;;;;;7.22;100.00;102348.59;5046861;28;20071;-64
2023/02/16 02:31:51;;;;;;;69.60;37.42;;;;;;;7.28;100.00;102338.09;5051978;28;20029;-64
2023/02/16 02:34:31;;;;;;;67.53;35.85;;;;;;;7.32;100.00;102330.25;5067399;28;20028;-64
2023/02/16 02:37:11;;;;;;;65.38;35.45;;;;;;;7.36;100.00;102325.91;5056540;28;20029;-66
2023/02/16 02:40:14;;;;;;;70.90;37.33;;;;;;;7.42;100.00;102319.81;5045383;28;20079;-65
2023/02/16 02:42:44;;;;;;;64.47;36.78;;;;;;;7.41;100.00;102318.91;5054884;28;20048;-64
2023/02/16 02:45:17;;;;;;;65.97;35.85;;;;;;;7.42;100.00;102309.31;5065676;28;20017;-65
2023/02/16 02:47:45;;;;;;;63.33;35.33;;;;;;;7.44;100.00;102305.81;5063828;28;20043;-65
2023/02/16 02:51:27;;;;;;;62.72;36.00;;;;;;;7.47;100.00;102302.34;5063575;28;20104;-65
2023/02/16 02:53:27;;;;;;;58.03;34.50;;;;;;;7.51;100.00;102306.72;5057182;28;20033;-65
2023/02/16 03:01:36;;;;;;;61.15;34.22;;;;;;;7.55;100.00;102295.34;5042475;28;20119;-66
2023/02/16 03:04:03;;;;;;;63.25;34.75;;;;;;;7.52;100.00;102294.47;5063987;28;20036;-65
2023/02/16 03:06:40;;;;;;;57.10;33.28;;;;;;;7.56;100.00;102299.72;5063490;28;20082;-63
2023/02/16 03:09:10;;;;;;;63.05;34.20;;;;;;;7.58;100.00;102299.72;5055783;28;20475;-65
2023/02/16 03:14:35;;;;;;;60.72;33.72;;;;;;;7.63;100.00;102286.63;5059035;28;20501;-64
2023/02/16 03:30:51;;;;;;;57.90;32.42;;;;;;;7.73;100.00;102298.03;5059180;28;20047;-65
2023/02/16 03:33:17;;;;;;;53.95;31.75;;;;;;;7.66;100.00;102292.75;5057476;28;20492;-63
2023/02/16 03:35:44;;;;;;;59.20;32.70;;;;;;;7.65;100.00;102298.00;5067989;28;20040;-66
2023/02/16 03:38:09;;;;;;;53.08;32.22;;;;;;;7.75;100.00;102301.50;5063907;28;20052;-65
2023/02/16 03:40:38;;;;;;;65.30;33.53;;;;;;;7.74;100.00;102302.41;5068670;28;20059;-65
2023/02/16 03:43:05;;;;;;;62.55;34.40;;;;;;;7.73;100.00;102304.13;5068563;28;20043;-64
2023/02/16 03:45:33;;;;;;;54.13;32.17;;;;;;;7.75;100.00;102302.41;5068678;28;20055;-65
2023/02/16 03:47:59;;;;;;;54.08;31.42;;;;;;;7.80;100.00;102308.50;5070006;28;20020;-63
2023/02/16 03:50:25;;;;;;;53.95;31.70;;;;;;;7.76;100.00;102298.91;5055421;28;20452;-64
2023/02/16 03:52:52;;;;;;;60.90;33.63;;;;;;;7.81;100.00;102296.28;5050529;28;20024;-64
2023/02/16 03:55:17;;;;;;;59.33;33.85;;;;;;;7.83;100.00;102294.53;5050667;28;20060;-64
2023/02/16 03:57:43;;;;;;;60.70;33.20;;;;;;;7.86;100.00;102296.28;5051090;28;20057;-64
2023/02/16 04:00:09;;;;;;;57.22;32.40;;;;;;;7.88;100.00;102291.91;5060357;28;20405;-62
2023/02/16 04:02:34;;;;;;;58.35;32.50;;;;;;;7.86;100.00;102284.06;5070529;28;20032;-64
2023/02/16 04:04:59;;;;;;;56.60;33.00;;;;;;;7.87;100.00;102292.78;5068844;28;20070;-64
2023/02/16 04:07:25;;;;;;;62.67;32.97;;;;;;;7.86;100.00;102291.03;5069667;28;20529;-63
2023/02/16 04:09:50;;;;;;;55.42;32.67;;;;;;;7.81;100.00;102297.16;5069557;28;20059;-64
2023/02/16 04:15:00;;;;;;;59.80;34.08;;;;;;;7.84;100.00;102302.41;5069236;28;20132;-65
2023/02/16 04:17:25;;;;;;;57.15;32.97;;;;;;;7.81;100.00;102296.28;5069775;28;20028;-63
2023/02/16 04:19:50;;;;;;;55.85;32.35;;;;;;;7.86;100.00;102309.41;5064525;28;20025;-64
2023/02/16 04:22:16;;;;;;;54.13;31.70;;;;;;;7.88;100.00;102307.66;5049433;28;20132;-65
2023/02/16 04:24:41;;;;;;;57.17;33.17;;;;;;;7.88;100.00;102302.41;5048105;28;20036;-67
2023/02/16 04:27:06;;;;;;;58.78;33.25;;;;;;;7.88;100.00;102299.78;5066986;28;20024;-63
2023/02/16 04:29:32;;;;;;;55.70;33.45;;;;;;;7.90;100.00;102296.28;5069378;28;20041;-65
2023/02/16 04:31:57;;;;;;;60.10;32.22;;;;;;;7.88;100.00;102299.78;5067937;28;20084;-64
2023/02/16 04:34:22;;;;;;;53.60;32.38;;;;;;;7.81;100.00;102301.53;5068714;28;20082;-64
2023/02/16 04:36:48;;;;;;;63.22;34.25;;;;;;;7.89;100.00;102307.66;5068660;28;20478;-65
2023/02/16 04:39:13;;;;;;;60.53;33.58;;;;;;;7.94;100.00;102299.78;5069375;28;20028;-64
2023/02/16 04:41:39;;;;;;;53.45;32.03;;;;;;;7.96;100.00;102295.41;5052188;28;20017;-63
2023/02/16 04:44:04;;;;;;;57.20;34.15;;;;;;;7.90;100.00;102295.41;5048879;28;20091;-65
2023/02/16 04:46:30;;;;;;;54.88;32.20;;;;;;;7.95;100.00;102296.31;5049016;28;20028;-64
2023/02/16 04:48:55;;;;;;;61.10;33.88;;;;;;;7.88;100.00;102297.16;5048179;28;20115;-64
2023/02/16 04:51:20;;;;;;;53.58;33.15;;;;;;;7.91;100.00;102292.78;5059772;28;20072;-65
2023/02/16 04:53:46;;;;;;;54.97;32.78;;;;;;;7.96;100.00;102292.78;5067905;28;20042;-66
2023/02/16 04:56:12;;;;;;;57.08;32.83;;;;;;;7.91;100.00;102297.16;5067329;28;20106;-65
2023/02/16 04:58:37;;;;;;;53.90;31.48;;;;;;;7.93;100.00;102295.41;5068168;28;20029;-65
2023/02/16 05:01:03;;;;;;;59.75;33.40;;;;;;;7.93;100.00;102283.19;5067976;28;20025;-66
2023/02/16 05:03:28;;;;;;;62.40;33.00;;;;;;;7.88;100.00;102278.78;5066925;28;20103;-65
2023/02/16 05:05:54;;;;;;;55.53;33.65;;;;;;;7.86;100.00;102276.19;5048299;28;20037;-65
2023/02/16 05:08:19;;;;;;;60.85;33.67;;;;;;;7.74;100.00;102271.78;5066826;28;20028;-65
2023/02/16 05:14:40;;;;;;;56.45;33.75;;;;;;;7.76;100.00;102266.53;5066932;28;20042;-63
2023/02/16 05:16:13;;;;;;;58.38;33.63;;;;;;;7.81;100.00;102264.78;5061189;28;20506;-65
2023/02/16 05:18:39;;;;;;;56.85;32.80;;;;;;;7.79;100.00;102270.03;5057797;28;20052;-66
2023/02/16 05:21:46;;;;;;;59.17;33.70;;;;;;;7.80;100.00;102279.66;5067769;28;20052;-65
2023/02/16 05:23:52;;;;;;;58.55;35.20;;;;;;;7.77;100.00;102268.28;5061947;28;20499;-65
2023/02/16 05:26:18;;;;;;;61.47;34.42;;;;;;;7.81;100.00;102275.28;5063046;28;20043;-64
2023/02/16 05:28:43;;;;;;;59.85;34.30;;;;;;;7.78;100.00;102268.28;5067224;28;20491;-65
2023/02/16 05:31:08;;;;;;;56.55;34.85;;;;;;;7.82;100.00;102264.78;5065575;28;20418;-64
2023/02/16 05:33:34;;;;;;;62.80;34.70;;;;;;;7.80;100.00;102269.16;5065461;28;20122;-65
2023/02/16 05:35:59;;;;;;;62.08;33.55;;;;;;;7.85;100.00;102266.53;5066374;28;20032;-64
2023/02/16 05:38:25;;;;;;;56.42;34.30;;;;;;;7.84;100.00;102270.94;5067198;28;20028;-64
2023/02/16 05:40:50;;;;;;;60.15;35.30;;;;;;;7.89;100.00;102277.91;5067964;28;20403;-63
2023/02/16 05:43:16;;;;;;;60.97;34.42;;;;;;;7.89;100.00;102277.91;5056293;28;20123;-64
2023/02/16 05:45:41;;;;;;;63.25;36.30;;;;;;;7.88;100.00;102274.41;5068652;28;20631;-65
2023/02/16 05:48:06;;;;;;;58.75;34.38;;;;;;;7.84;100.00;102270.94;5068842;28;20056;-67
2023/02/16 05:50:32;;;;;;;60.55;35.70;;;;;;;7.93;100.00;102272.69;5065315;28;20040;-65
2023/02/16 05:52:57;;;;;;;59.10;34.78;;;;;;;7.90;100.00;102275.31;5049372;28;20024;-66
2023/02/16 05:55:22;;;;;;;58.70;35.40;;;;;;;7.91;100.00;102270.91;5047492;28;20422;-64
2023/02/16 05:57:48;;;;;;;62.13;36.03;;;;;;;7.82;100.00;102267.41;5068482;28;20119;-66
2023/02/16 06:00:14;;;;;;;62.17;35.72;;;;;;;7.75;100.00;102263.03;5066967;28;20028;-65
2023/02/16 06:02:39;;;;;;;55.35;35.17;;;;;;;7.76;100.00;102264.78;5062043;28;20028;-65
2023/02/16 06:05:05;;;;;;;61.75;36.50;;;;;;;7.77;100.00;102273.53;5065151;28;20503;-64
2023/02/16 06:07:30;;;;;;;61.80;35.15;;;;;;;7.76;100.00;102266.53;5066085;28;20344;-66
2023/02/16 06:09:55;;;;;;;61.95;35.92;;;;;;;7.80;100.00;102265.66;5067106;28;20028;-63
2023/02/16 06:12:21;;;;;;;61.88;35.17;;;;;;;7.80;100.00;102265.66;5066584;28;20040;-66
2023/02/16 06:14:46;;;;;;;61.50;36.92;;;;;;;7.75;100.00;102265.66;5066916;28;20479;-65
2023/02/16 06:17:11;;;;;;;66.40;36.20;;;;;;;7.75;100.00;102265.66;5066500;28;20398;-67
2023/02/16 06:19:37;;;;;;;58.65;35.42;;;;;;;7.72;100.00;102268.28;5065624;28;20031;-63
2023/02/16 06:22:02;;;;;;;66.03;35.90;;;;;;;7.74;100.00;102268.28;5066130;28;20104;-67
2023/02/16 06:24:27;;;;;;;65.57;36.53;;;;;;;7.72;100.00;102278.78;5066602;28;20032;-67
2023/02/16 06:26:53;;;;;;;64.35;36.08;;;;;;;7.70;100.00;102272.63;5066564;28;20016;-66
2023/02/16 06:29:18;;;;;;;56.90;35.60;;;;;;;7.73;100.00;102275.28;5066731;28;20067;-64
2023/02/16 06:31:43;;;;;;;60.13;36.03;;;;;;;7.83;100.00;102286.66;5062065;28;20029;-67
2023/02/16 06:34:11;;;;;;;61.03;35.85;;;;;;;7.84;100.00;102281.44;5061108;28;20032;-66
2023/02/16 06:36:36;;;;;;;62.53;36.33;;;;;;;7.86;100.00;102277.91;5066007;28;20024;-65
2023/02/16 06:39:02;;;;;;;65.63;37.05;;;;;;;7.89;100.00;102280.53;5066289;28;20123;-66
2023/02/16 06:41:30;;;;;;;63.35;36.13;;;;;;;7.90;100.00;102277.03;5066331;28;20029;-65
2023/02/16 06:44:00;;;;;;;70.03;36.97;;;;;;;7.80;100.00;102284.91;5066175;28;20036;-71
2023/02/16 06:46:26;;;;;;;65.25;36.22;;;;;;;7.82;100.00;102283.16;5066806;28;20060;-66
2023/02/16 06:48:51;;;;;;;57.20;34.42;;;;;;;7.87;100.00;102287.53;5056931;28;20062;-66
2023/02/16 06:51:17;;;;;;;63.60;35.58;;;;;;;7.90;100.00;102291.03;5061577;28;20032;-67
2023/02/16 06:53:43;;;;;;;62.33;36.35;;;;;;;7.94;100.00;102286.66;5050926;28;20467;-66
2023/02/16 06:56:08;;;;;;;64.18;36.35;;;;;;;7.93;100.00;102291.06;5065481;28;20039;-66
2023/02/16 06:58:33;;;;;;;63.58;36.58;;;;;;;8.00;100.00;102301.56;5066528;28;20103;-65
2023/02/16 07:00:59;;;;;;;68.05;36.70;;;;;;;8.00;100.00;102297.16;5052973;28;20540;-65
2023/02/16 07:03:24;;;;;;;58.60;35.00;;;;;;;8.06;100.00;102306.78;5044579;28;20055;-65
2023/02/16 07:05:49;;;;;;;63.28;36.08;;;;;;;8.03;100.00;102305.03;5050784;28;20055;-65
2023/02/16 07:08:15;;;;;;;65.95;36.25;;;;;;;8.09;100.00;102306.78;5065927;28;20056;-65
2023/02/16 07:10:44;;;;;;;68.40;35.88;;;;;;;8.11;100.00;102309.41;5056858;28;20585;-65
2023/02/16 07:13:10;;;;;;;63.33;36.25;;;;;;;8.13;100.00;102311.16;5055497;28;20052;-66
2023/02/16 07:15:35;;;;;;;57.92;34.50;;;;;;;8.11;100.00;102306.78;5055492;28;20547;-64
2023/02/16 07:18:00;;;;;;;63.50;34.83;;;;;;;8.15;100.00;102311.16;5062384;28;20048;-65
2023/02/16 07:20:27;;;;;;;64.07;35.33;;;;;;;8.21;100.00;102305.91;5058895;28;20044;-66
2023/02/16 07:22:52;;;;;;;59.15;33.40;;;;;;;8.18;100.00;102311.16;5073516;28;20009;-66
2023/02/16 07:25:17;;;;;;;58.22;33.95;;;;;;;8.31;100.00;102312.06;5060960;28;20090;-69
2023/02/16 07:27:43;;;;;;;61.42;34.22;;;;;;;8.33;100.00;102311.16;5058520;28;20115;-66
2023/02/16 07:30:09;;;;;;;62.47;35.15;;;;;;;8.37;100.00;102316.44;5059163;28;20048;-59
2023/02/16 07:32:35;;;;;;;59.42;33.60;;;;;;;8.38;100.00;102315.53;5055528;28;20106;-66
2023/02/16 07:35:01;;;;;;;61.45;34.45;;;;;;;8.43;100.00;102311.16;5059234;28;20025;-65
2023/02/16 07:37:26;;;;;;;61.83;34.97;;;;;;;8.40;100.00;102322.53;5064572;28;20036;-65
2023/02/16 07:39:52;;;;;;;57.15;33.90;;;;;;;8.44;100.00;102318.16;5058194;28;20070;-66
2023/02/16 07:42:18;;;;;;;58.25;34.20;;;;;;;8.46;100.00;102332.19;5063891;28;20083;-65
2023/02/16 07:44:43;;;;;;;58.50;34.60;;;;;;;8.39;100.00;102333.94;5064322;28;20270;-66
2023/02/16 07:47:13;;;;;;;54.20;34.08;;;;;;;8.44;100.00;102339.19;5064835;28;20067;-66
2023/02/16 07:49:38;;;;;;;61.15;34.92;;;;;;;8.46;100.00;102338.28;5064493;28;20025;-65
2023/02/16 07:52:04;;;;;;;54.33;34.05;;;;;;;8.45;100.00;102336.56;5046184;28;20801;-66
2023/02/16 07:54:31;;;;;;;57.45;34.30;;;;;;;8.41;100.00;102344.44;5045376;28;20425;-66
2023/02/16 07:56:56;;;;;;;58.70;35.33;;;;;;;8.46;100.00;102340.91;5063416;28;20513;-66
2023/02/16 07:59:21;;;;;;;64.15;35.50;;;;;;;8.53;100.00;102344.44;5066099;28;20020;-65
2023/02/16 08:01:47;;;;;;;59.42;36.53;;;;;;;8.46;100.00;102350.56;5054661;28;20106;-64
2023/02/16 08:04:12;;;;;;;58.08;35.97;;;;;;;8.43;100.00;102350.56;5053873;28;20039;-65
2023/02/16 08:06:37;;;;;;;59.65;35.22;;;;;;;8.51;100.00;102351.44;5061658;28;20021;-61
2023/02/16 08:09:03;;;;;;;59.47;34.80;;;;;;;8.41;100.00;102349.69;5057803;28;20854;-65
2023/02/16 08:11:28;;;;;;;59.33;34.63;;;;;;;8.49;100.00;102352.31;5060521;28;20090;-66
2023/02/16 08:13:54;;;;;;;66.70;36.70;;;;;;;8.53;100.00;102354.94;5058107;28;20029;-65
2023/02/16 08:16:24;;;;;;;64.82;37.00;;;;;;;8.53;100.00;102351.44;5060589;28;20032;-68
2023/02/16 08:18:50;;;;;;;56.53;34.85;;;;;;;8.53;100.00;102349.69;5066721;28;20021;-65
2023/02/16 08:21:19;;;;;;;65.82;37.03;;;;;;;8.41;100.00;102349.69;5065123;28;20025;-66
2023/02/16 08:23:57;;;;;;;64.05;37.63;;;;;;;8.41;100.00;102362.81;5054837;28;20033;-63
2023/02/16 08:26:24;;;;;;;65.03;37.00;;;;;;;8.35;100.00;102363.69;5052921;28;20471;-62
2023/02/16 08:28:50;;;;;;;59.50;36.80;;;;;;;8.31;100.00;102365.44;5056084;28;20066;-62
2023/02/16 08:31:21;;;;;;;63.03;36.92;;;;;;;8.22;100.00;102362.84;5057461;28;20478;-65
2023/02/16 08:33:47;;;;;;;66.32;38.55;;;;;;;8.22;100.00;102361.06;5067915;28;20072;-64
2023/02/16 08:36:20;;;;;;;62.65;38.47;;;;;;;8.18;100.00;102364.56;5066530;28;20021;-63
2023/02/16 08:38:48;;;;;;;63.03;39.13;;;;;;;8.16;100.00;102368.06;5066308;28;20407;-64
2023/02/16 08:41:14;;;;;;;69.25;41.25;;;;;;;8.19;100.00;102365.44;5067441;28;20082;-63
2023/02/16 08:43:40;;;;;;;68.60;39.90;;;;;;;8.19;100.00;102366.31;5062797;28;20024;-66
2023/02/16 08:46:06;;;;;;;67.95;40.80;;;;;;;8.07;100.00;102356.66;5068529;28;20037;-66
2023/02/16 08:48:34;;;;;;;67.70;39.80;;;;;;;8.11;100.00;102356.69;5069459;28;20054;-67
2023/02/16 08:51:00;;;;;;;71.03;40.67;;;;;;;8.15;100.00;102353.16;5062753;28;20057;-66
2023/02/16 08:53:26;;;;;;;67.30;39.80;;;;;;;8.18;100.00;102354.06;5063932;28;20036;-64
2023/02/16 08:56:01;;;;;;;73.10;40.70;;;;;;;8.30;100.00;102357.56;5073629;28;20209;-68
2023/02/16 08:58:27;;;;;;;75.32;41.63;;;;;;;8.37;100.00;102358.44;5069377;28;20453;-67
2023/02/16 09:00:53;;;;;;;68.45;41.42;;;;;;;8.43;100.00;102359.31;5066591;28;20103;-68
2023/02/16 09:03:18;;;;;;;67.90;40.58;;;;;;;8.50;100.00;102348.81;5067199;28;20024;-65
2023/02/16 09:05:48;;;;;;;68.45;40.80;;;;;;;8.63;100.00;102350.56;5060939;28;20693;-63
2023/02/16 09:08:14;;;;;;;68.40;39.33;;;;;;;8.77;100.00;102349.69;5057804;28;20033;-65
2023/02/16 09:10:40;;;;;;;61.72;38.13;;;;;;;8.78;100.00;102346.16;5057133;28;20350;-64
2023/02/16 09:13:09;;;;;;;74.18;40.65;;;;;;;8.78;100.00;102344.41;5055784;28;20387;-66
2023/02/16 09:15:35;;;;;;;67.05;38.55;;;;;;;8.81;100.00;102347.03;5058873;28;20060;-63
2023/02/16 09:18:01;;;;;;;63.13;39.78;;;;;;;8.77;100.00;102347.94;5057867;28;20029;-65
2023/02/16 09:20:27;;;;;;;63.78;38.25;;;;;;;8.74;100.00;102353.19;5058563;28;20040;-65
2023/02/16 09:22:53;;;;;;;71.68;39.38;;;;;;;8.78;100.00;102359.31;5062642;28;20076;-70
2023/02/16 09:25:19;;;;;;;67.55;39.45;;;;;;;8.75;100.00;102354.03;5056682;28;20108;-65
2023/02/16 09:27:44;;;;;;;66.85;40.65;;;;;;;8.76;100.00;102353.19;5062664;28;20419;-64
2023/02/16 09:30:10;;;;;;;68.93;40.63;;;;;;;8.91;100.00;102347.03;5057189;28;20037;-66
2023/02/16 09:32:35;;;;;;;66.93;38.83;;;;;;;8.97;100.00;102344.34;5052796;28;20035;-62
2023/02/16 09:35:01;;;;;;;66.18;39.95;;;;;;;9.13;100.00;102349.56;5063456;28;20029;-64
2023/02/16 09:37:26;;;;;;;64.18;38.35;;;;;;;9.15;100.00;102353.09;5060523;28;20029;-64
2023/02/16 09:39:52;;;;;;;65.43;39.17;;;;;;;9.10;100.00;102345.22;5059529;28;20356;-65
2023/02/16 09:42:20;;;;;;;62.30;38.70;;;;;;;9.39;100.00;102341.56;5067401;28;20028;-66
2023/02/16 09:44:49;;;;;;;64.00;38.45;;;;;;;9.53;100.00;102341.50;5079340;28;20029;-65
2023/02/16 09:47:19;;;;;;;61.20;37.97;;;;;;;9.64;100.00;102345.84;5058272;28;20016;-66
2023/02/16 09:49:45;;;;;;;61.38;35.35;;;;;;;9.78;100.00;102337.88;5059792;28;20031;-65
2023/02/16 09:52:57;;;;;;;60.55;38.33;;;;;;;9.90;100.00;102336.91;5057406;28;20772;-66
2023/02/16 09:55:24;;;;;;;61.70;37.28;;;;;;;10.01;100.00;102348.25;5057992;28;20083;-65
2023/02/16 09:58:20;;;;;;;62.20;37.03;;;;;;;10.14;100.00;102345.53;5052951;28;20017;-67
2023/02/16 10:00:53;;;;;;;59.22;37.50;;;;;;;10.10;100.00;102345.53;5059334;28;20064;-66
2023/02/16 10:03:38;;;;;;;60.78;38.03;;;;;;;10.16;100.00;102343.72;5066649;28;20029;-67
2023/02/16 10:06:12;;;;;;;54.20;35.55;;;;;;;10.08;100.00;102343.78;5058558;28;20394;-60
2023/02/16 10:08:38;;;;;;;60.83;37.38;;;;;;;9.99;100.00;102347.38;5061477;28;20090;-66
2023/02/16 10:14:47;;;;;;;65.85;36.60;;;;;;;9.98;100.00;102335.09;5051885;28;20074;-67
2023/02/16 10:17:34;;;;;;;60.10;37.15;;;;;;;10.10;100.00;102334.13;5065938;28;20095;-68
2023/02/16 10:20:08;;;;;;;55.67;36.17;;;;;;;10.25;100.00;102333.13;5063812;28;20415;-65
2023/02/16 10:22:37;;;;;;;62.90;36.50;;;;;;;10.32;100.00;102333.94;5064066;28;20462;-66
2023/02/16 10:25:05;;;;;;;;;;;;;;;10.37;100.00;102332.16;5064464;28;20078;-66
2023/02/16 10:27:56;;;;;;;64.35;35.80;;;;;;;10.35;100.00;102331.28;5066782;28;20370;-69
2023/02/16 10:30:22;;;;;;;61.80;36.45;;;;;;;10.56;100.00;102326.72;5053888;28;20406;-67
2023/02/16 10:32:47;;;;;;;52.85;34.60;;;;;;;10.59;100.00;102327.56;5061162;28;20025;-68
2023/02/16 10:35:16;;;;;;;56.25;34.50;;;;;;;10.76;100.00;102323.91;5065951;28;20350;-65
2023/02/16 10:37:59;;;;;;;58.45;35.30;;;;;;;10.70;100.00;102331.84;5066615;28;20028;-63
2023/02/16 10:40:43;;;;;;;65.93;36.70;;;;;;;10.80;100.00;102337.91;5052302;28;20122;-66
2023/02/16 10:43:19;;;;;;;56.58;35.28;;;;;;;10.92;100.00;102329.84;5054966;28;20407;-65
2023/02/16 10:45:48;;;;;;;60.45;35.15;;;;;;;10.99;100.00;102325.41;5057197;28;20028;-64
2023/02/16 10:48:14;;;;;;;55.47;35.13;;;;;;;10.98;100.00;102323.63;5062890;28;20104;-69
2023/02/16 10:50:42;;;;;;;60.08;34.10;;;;;;;11.11;100.00;102319.09;5053023;28;20511;-68
2023/02/16 10:53:30;;;;;;;53.88;33.78;;;;;;;11.09;100.00;102328.78;5058637;28;20613;-71
2023/02/16 10:55:56;;;;;;;52.58;33.40;;;;;;;11.18;100.00;102327.81;5028073;28;20048;-64
2023/02/16 10:58:30;;;;;;;53.10;34.53;;;;;;;11.09;100.00;102337.59;5070651;28;20035;-67
2023/02/16 11:01:36;;;;;;;57.60;34.38;;;;;;;11.00;100.00;102335.06;5060112;28;20499;-68
2023/02/16 11:04:01;;;;;;;53.25;34.20;;;;;;;11.13;100.00;102343.69;4972371;28;20041;-64
2023/02/16 11:06:27;;;;;;;52.90;33.25;;;;;;;11.40;100.00;102327.50;5035472;28;20348;-64
2023/02/16 11:08:56;;;;;;;56.00;34.60;;;;;;;11.45;100.00;102330.97;5054484;28;20371;-65
2023/02/16 11:11:34;;;;;;;55.65;34.00;;;;;;;11.62;100.00;102333.41;5046099;28;20383;-64
2023/02/16 11:14:05;;;;;;;50.78;32.80;;;;;;;11.78;100.00;102323.47;5048237;28;20103;-64
2023/02/16 11:16:31;;;;;;;54.40;33.00;;;;;;;11.68;100.00;102320.09;5055421;28;20391;-65
2023/02/16 11:19:00;;;;;;;50.80;33.35;;;;;;;11.82;100.00;102317.25;5055983;28;20418;-66
2023/02/16 11:21:45;;;;;;;52.35;32.45;;;;;;;11.75;100.00;102305.03;5057059;28;20036;-65
2023/02/16 11:24:13;;;;;;;48.67;31.27;;;;;;;11.99;100.00;102308.19;5056155;28;20059;-65
2023/02/16 11:26:38;;;;;;;61.77;33.90;;;;;;;11.94;100.00;102299.44;5046774;28;20078;-64
2023/02/16 11:29:18;;;;;;;53.20;32.20;;;;;;;12.13;100.00;102306.22;5045347;28;20044;-64
2023/02/16 11:31:43;;;;;;;49.80;30.70;;;;;;;12.34;100.00;102304.09;5067007;28;20064;-65
2023/02/16 11:34:24;;;;;;;53.28;29.75;;;;;;;12.44;100.00;102298.63;5066351;28;20108;-64
2023/02/16 11:36:49;;;;;;;47.75;30.58;;;;;;;12.32;100.00;102300.63;5063248;28;20067;-64
2023/02/16 11:39:25;;;;;;;47.40;29.08;;;;;;;12.41;100.00;102293.41;5070865;28;20387;-65
2023/02/16 11:41:56;;;;;;;47.53;31.77;;;;;;;12.33;100.00;102299.72;5069916;28;20029;-63
2023/02/16 11:44:28;;;;;;;51.17;29.65;;;;;;;12.49;100.00;102299.41;5060394;28;20017;-62
2023/02/16 11:46:55;;;;;;;51.10;30.02;;;;;;;12.57;100.00;102299.28;5058753;28;20044;-66
2023/02/16 11:49:39;;;;;;;44.25;28.38;;;;;;;12.61;100.00;102287.72;5059983;28;20036;-66
2023/02/16 11:52:36;;;;;;;46.33;27.42;;;;;;;12.63;100.00;102283.28;5066941;28;20529;-64
2023/02/16 11:55:02;;;;;;;49.92;26.38;;;;;;;12.92;100.00;102270.38;5009639;28;20514;-65
2023/02/16 11:57:34;;;;;;;40.78;25.88;;;;;;;12.94;100.00;102265.94;5066932;28;20024;-69
2023/02/16 12:00:03;;;;;;;45.15;26.52;;;;;;;13.13;100.00;102266.44;5070316;28;20494;-67
2023/02/16 12:02:37;;;;;;;43.55;26.77;;;;;;;13.23;100.00;102256.50;5061404;28;20025;-66
2023/02/16 12:05:06;;;;;;;49.25;28.52;;;;;;;13.58;100.00;102262.78;5056460;28;20108;-66